createdAt,value
2017-03-11T00:00:40.215Z,7.64
2017-03-11T00:01:40.234Z,7.61
2017-03-11T00:02:39.865Z,7.68
2017-03-11T00:03:40.281Z,7.69
2017-03-11T00:04:39.903Z,7.64
2017-03-11T00:05:40.311Z,7.68
2017-03-11T00:06:40.322Z,7.69
2017-03-11T00:07:40.346Z,7.68
2017-03-11T00:08:40.375Z,7.58
2017-03-11T00:09:40.383Z,7.61
2017-03-11T00:10:40.403Z,7.6
2017-03-11T00:11:54.950Z,7.64
2017-03-11T00:12:54.973Z,7.67
2017-03-11T00:13:40.462Z,7.69
2017-03-11T00:14:40.477Z,7.74
2017-03-11T00:16:55.044Z,7.57
2017-03-11T00:17:40.556Z,7.58
2017-03-11T00:19:41.215Z,7.61
2017-03-11T00:20:40.591Z,7.64
2017-03-11T00:21:40.636Z,7.63
2017-03-11T00:22:40.649Z,7.53
2017-03-11T00:23:40.650Z,7.63
2017-03-11T00:24:40.672Z,7.6
2017-03-11T00:25:40.686Z,7.68
2017-03-11T00:26:40.708Z,7.71
2017-03-11T00:27:55.262Z,7.64
2017-03-11T00:28:40.742Z,7.61
2017-03-11T00:29:40.768Z,7.48
2017-03-11T00:30:40.780Z,7.68
2017-03-11T00:31:40.805Z,7.63
2017-03-11T00:32:40.820Z,7.61
2017-03-11T00:33:40.837Z,7.55
2017-03-11T00:34:40.888Z,7.48
2017-03-11T00:35:40.888Z,7.48
2017-03-11T00:36:40.899Z,7.43
2017-03-11T00:37:55.452Z,7.45
2017-03-11T00:38:40.933Z,7.52
2017-03-11T00:39:40.953Z,7.46
2017-03-11T00:40:40.977Z,7.42
2017-03-11T00:41:41.012Z,7.53
2017-03-11T00:43:55.554Z,7.43
2017-03-11T00:45:41.066Z,7.45
2017-03-11T00:46:41.083Z,7.45
2017-03-11T00:47:41.105Z,7.31
2017-03-11T00:48:41.145Z,7.39
2017-03-11T00:49:55.667Z,7.39
2017-03-11T00:50:41.158Z,7.31
2017-03-11T00:51:41.176Z,7.39
2017-03-11T00:52:41.199Z,7.34
2017-03-11T00:53:41.229Z,7.37
2017-03-11T00:54:41.236Z,7.3
2017-03-11T00:55:40.871Z,7.31
2017-03-11T00:56:41.273Z,7.24
2017-03-11T00:57:41.306Z,7.24
2017-03-11T00:58:55.854Z,7.28
2017-03-11T00:59:41.342Z,7.27
2017-03-11T01:00:41.356Z,7.28
2017-03-11T01:01:41.365Z,7.12
2017-03-11T01:02:41.409Z,7.21
2017-03-11T01:03:41.406Z,7.25
2017-03-11T01:04:41.427Z,7.09
2017-03-11T01:05:41.442Z,7.12
2017-03-11T01:06:56.301Z,7.16
2017-03-11T01:07:41.477Z,7.16
2017-03-11T01:08:41.499Z,7.13
2017-03-11T01:09:41.526Z,7.16
2017-03-11T01:10:41.535Z,7.1
2017-03-11T01:11:41.560Z,7.13
2017-03-11T01:12:41.578Z,7.21
2017-03-11T01:13:41.606Z,7.16
2017-03-11T01:14:41.249Z,7.13
2017-03-11T01:15:41.626Z,7.06
2017-03-11T01:16:41.664Z,7.17
2017-03-11T01:17:41.674Z,7.09
2017-03-11T01:18:41.694Z,7.15
2017-03-11T01:19:56.232Z,7.07
2017-03-11T01:20:41.723Z,6.91
2017-03-11T01:21:56.282Z,6.85
2017-03-11T01:22:41.778Z,6.97
2017-03-11T01:23:56.318Z,6.74
2017-03-11T01:24:41.831Z,6.74
2017-03-11T01:25:41.816Z,6.85
2017-03-11T01:26:41.853Z,6.77
2017-03-11T01:27:41.853Z,6.85
2017-03-11T01:28:41.871Z,6.97
2017-03-11T01:29:41.903Z,6.84
2017-03-11T01:30:56.436Z,6.87
2017-03-11T01:31:41.560Z,6.84
2017-03-11T01:32:41.968Z,6.8
2017-03-11T01:33:41.999Z,6.74
2017-03-11T01:34:42.002Z,6.69
2017-03-11T01:35:42.004Z,6.73
2017-03-11T01:36:42.023Z,6.77
2017-03-11T01:37:42.038Z,6.73
2017-03-11T01:38:42.067Z,6.73
2017-03-11T01:39:42.099Z,6.69
2017-03-11T01:40:42.121Z,6.74
2017-03-11T01:41:42.125Z,6.7
2017-03-11T01:42:42.136Z,6.8
2017-03-11T01:43:42.159Z,6.7
2017-03-11T01:44:42.180Z,6.73
2017-03-11T01:45:41.810Z,6.73
2017-03-11T01:47:57.207Z,6.74
2017-03-11T01:48:42.245Z,6.71
2017-03-11T01:49:42.273Z,6.73
2017-03-11T01:50:42.297Z,6.73
2017-03-11T01:51:42.310Z,6.64
2017-03-11T01:52:42.319Z,6.61
2017-03-11T01:53:41.949Z,6.62
2017-03-11T01:54:42.358Z,6.66
2017-03-11T01:56:42.394Z,6.61
2017-03-11T01:57:42.414Z,6.64
2017-03-11T01:58:42.436Z,6.61
2017-03-11T01:59:42.451Z,6.56
2017-03-11T02:00:42.496Z,6.49
2017-03-11T02:01:42.495Z,6.52
2017-03-11T02:02:57.036Z,6.43
2017-03-11T02:03:42.528Z,6.48
2017-03-11T02:05:42.175Z,6.38
2017-03-11T02:06:42.591Z,6.41
2017-03-11T02:07:42.599Z,6.31
2017-03-11T02:08:42.622Z,6.3
2017-03-11T02:09:42.661Z,6.31
2017-03-11T02:10:42.675Z,6.34
2017-03-11T02:11:42.678Z,6.36
2017-03-11T02:12:42.694Z,6.33
2017-03-11T02:13:42.724Z,6.28
2017-03-11T02:14:42.746Z,6.14
2017-03-11T02:15:42.744Z,6.27
2017-03-11T02:16:57.299Z,6.21
2017-03-11T02:17:42.411Z,6.31
2017-03-11T02:18:57.352Z,6.28
2017-03-11T02:19:42.441Z,6.25
2017-03-11T02:20:42.837Z,6.15
2017-03-11T02:21:42.858Z,6.15
2017-03-11T02:22:57.402Z,6.14
2017-03-11T02:23:42.894Z,6.27
2017-03-11T02:24:42.908Z,6.22
2017-03-11T02:25:42.946Z,6.25
2017-03-11T02:26:42.947Z,6.25
2017-03-11T02:28:42.596Z,6.19
2017-03-11T02:30:43.051Z,6.33
2017-03-11T02:31:43.046Z,6.3
2017-03-11T02:32:43.083Z,6.28
2017-03-11T02:33:57.612Z,6.25
2017-03-11T02:34:43.106Z,6.21
2017-03-11T02:35:43.117Z,6.25
2017-03-11T02:37:43.157Z,6.36
2017-03-11T02:38:57.696Z,6.36
2017-03-11T02:39:43.208Z,6.28
2017-03-11T02:40:43.207Z,6.34
2017-03-11T02:41:43.223Z,6.34
2017-03-11T02:42:58.069Z,6.37
2017-03-11T02:44:43.287Z,6.36
2017-03-11T02:45:43.327Z,6.38
2017-03-11T02:46:43.313Z,6.41
2017-03-11T02:47:43.336Z,6.3
2017-03-11T02:48:43.349Z,6.33
2017-03-11T02:49:43.380Z,6.25
2017-03-11T02:51:43.417Z,6.27
2017-03-11T02:52:43.423Z,6.21
2017-03-11T02:53:57.971Z,6.27
2017-03-11T02:54:57.989Z,6.31
2017-03-11T02:55:43.480Z,6.31
2017-03-11T02:57:43.518Z,6.28
2017-03-11T02:58:43.535Z,6.34
2017-03-11T02:59:43.566Z,6.3
2017-03-11T03:00:43.590Z,6.21
2017-03-11T03:01:43.589Z,6.22
2017-03-11T03:02:43.607Z,6.28
2017-03-11T03:03:43.627Z,6.25
2017-03-11T03:04:43.642Z,6.3
2017-03-11T03:06:43.689Z,6.27
2017-03-11T03:07:43.698Z,6.15
2017-03-11T03:08:43.331Z,6.19
2017-03-11T03:10:43.777Z,6.14
2017-03-11T03:11:43.771Z,6.11
2017-03-11T03:13:43.807Z,6.06
2017-03-11T03:14:43.840Z,6.06
2017-03-11T03:15:43.872Z,6.09
2017-03-11T03:16:43.499Z,5.99
2017-03-11T03:17:43.885Z,6.09
2017-03-11T03:18:43.901Z,6.12
2017-03-11T03:19:43.926Z,6.04
2017-03-11T03:20:43.935Z,5.99
2017-03-11T03:21:58.486Z,6.03
2017-03-11T03:22:43.982Z,6.01
2017-03-11T03:23:44.009Z,5.96
2017-03-11T03:24:44.015Z,5.93
2017-03-11T03:25:44.036Z,6.01
2017-03-11T03:26:43.658Z,5.96
2017-03-11T03:27:44.065Z,5.96
2017-03-11T03:28:44.082Z,6.03
2017-03-11T03:29:44.101Z,6.01
2017-03-11T03:30:44.116Z,6.03
2017-03-11T03:31:44.145Z,6.08
2017-03-11T03:32:44.158Z,6.08
2017-03-11T03:33:44.174Z,6.01
2017-03-11T03:34:44.189Z,5.93
2017-03-11T03:35:45.089Z,5.97
2017-03-11T03:36:44.241Z,5.96
2017-03-11T03:37:58.772Z,5.93
2017-03-11T03:38:44.261Z,5.94
2017-03-11T03:39:44.279Z,5.94
2017-03-11T03:40:44.308Z,6.03
2017-03-11T03:41:44.323Z,6.01
2017-03-11T03:42:44.370Z,6
2017-03-11T03:43:44.361Z,6.01
2017-03-11T03:44:44.379Z,6
2017-03-11T03:45:44.388Z,5.99
2017-03-11T03:46:44.409Z,6.01
2017-03-11T03:48:44.454Z,5.93
2017-03-11T03:49:44.472Z,5.86
2017-03-11T03:51:44.495Z,5.96
2017-03-11T03:52:44.512Z,5.91
2017-03-11T03:53:59.058Z,5.86
2017-03-11T03:54:44.595Z,5.89
2017-03-11T03:55:44.576Z,5.83
2017-03-11T03:56:44.200Z,5.82
2017-03-11T03:57:59.137Z,5.83
2017-03-11T03:58:44.624Z,5.81
2017-03-11T03:59:44.658Z,5.81
2017-03-11T04:00:44.666Z,5.82
2017-03-11T04:01:44.701Z,5.82
2017-03-11T04:02:44.695Z,5.72
2017-03-11T04:04:44.735Z,5.78
2017-03-11T04:05:44.759Z,5.76
2017-03-11T04:06:44.766Z,5.82
2017-03-11T04:07:44.791Z,5.76
2017-03-11T04:08:59.330Z,5.74
2017-03-11T04:09:44.820Z,5.74
2017-03-11T04:10:44.845Z,5.6
2017-03-11T04:11:44.485Z,5.61
2017-03-11T04:12:44.876Z,5.58
2017-03-11T04:13:44.905Z,5.57
2017-03-11T04:14:44.929Z,5.6
2017-03-11T04:15:44.960Z,5.49
2017-03-11T04:16:44.945Z,5.45
2017-03-11T04:17:44.972Z,5.53
2017-03-11T04:18:44.984Z,5.51
2017-03-11T04:19:59.537Z,5.54
2017-03-11T04:20:45.020Z,5.54
2017-03-11T04:21:45.055Z,5.48
2017-03-11T04:22:45.070Z,5.58
2017-03-11T04:23:45.072Z,5.46
2017-03-11T04:24:45.096Z,5.42
2017-03-11T04:25:45.120Z,5.43
2017-03-11T04:26:45.126Z,5.43
2017-03-11T04:28:45.169Z,5.42
2017-03-11T04:29:45.182Z,5.39
2017-03-11T04:30:45.198Z,5.33
2017-03-11T04:31:45.221Z,5.43
2017-03-11T04:33:45.418Z,5.39
2017-03-11T04:34:45.274Z,5.35
2017-03-11T04:35:45.297Z,5.25
2017-03-11T04:36:45.308Z,5.3
2017-03-11T04:37:45.320Z,5.35
2017-03-11T04:38:45.361Z,5.31
2017-03-11T04:39:45.357Z,5.31
2017-03-11T04:40:59.902Z,5.27
2017-03-11T04:41:45.392Z,5.35
2017-03-11T04:42:45.410Z,5.39
2017-03-11T04:43:45.427Z,5.33
2017-03-11T04:44:45.449Z,5.42
2017-03-11T04:45:45.460Z,5.25
2017-03-11T04:47:00.008Z,5.39
2017-03-11T04:47:45.497Z,5.31
2017-03-11T04:48:45.526Z,5.33
2017-03-11T04:49:45.156Z,5.31
2017-03-11T04:50:45.562Z,5.27
2017-03-11T04:51:45.569Z,5.25
2017-03-11T04:52:45.588Z,5.22
2017-03-11T04:53:45.605Z,5.27
2017-03-11T04:54:45.622Z,5.21
2017-03-11T04:55:45.641Z,5.27
2017-03-11T04:57:00.185Z,5.28
2017-03-11T04:57:45.685Z,5.35
2017-03-11T04:58:45.697Z,5.27
2017-03-11T04:59:45.722Z,5.22
2017-03-11T05:00:45.341Z,5.21
2017-03-11T05:01:45.751Z,5.12
2017-03-11T05:02:45.774Z,5.15
2017-03-11T05:03:45.779Z,5.21
2017-03-11T05:05:00.338Z,5.2
2017-03-11T05:05:45.819Z,5.22
2017-03-11T05:07:45.857Z,5.21
2017-03-11T05:08:45.868Z,5.15
2017-03-11T05:09:45.884Z,5.13
2017-03-11T05:10:45.911Z,5.2
2017-03-11T05:11:45.922Z,5.13
2017-03-11T05:13:00.487Z,5.1
2017-03-11T05:13:45.957Z,5.17
2017-03-11T05:14:45.980Z,5.18
2017-03-11T05:15:46.001Z,5.13
2017-03-11T05:16:45.630Z,5.15
2017-03-11T05:17:46.032Z,5.1
2017-03-11T05:18:46.253Z,5.02
2017-03-11T05:19:46.062Z,5.13
2017-03-11T05:20:46.080Z,5.09
2017-03-11T05:21:46.105Z,5.2
2017-03-11T05:23:46.135Z,5.06
2017-03-11T05:24:46.155Z,5.03
2017-03-11T05:26:00.702Z,5.1
2017-03-11T05:26:46.196Z,5.12
2017-03-11T05:27:46.199Z,5.21
2017-03-11T05:29:00.748Z,5.27
2017-03-11T05:29:46.242Z,5.27
2017-03-11T05:30:46.265Z,5.24
2017-03-11T05:31:46.270Z,5.2
2017-03-11T05:32:46.299Z,5.22
2017-03-11T05:33:46.308Z,5.24
2017-03-11T05:34:46.351Z,5.2
2017-03-11T05:35:46.356Z,5.21
2017-03-11T05:36:46.373Z,5.22
2017-03-11T05:37:46.380Z,5.28
2017-03-11T05:38:46.399Z,5.25
2017-03-11T05:39:46.414Z,5.22
2017-03-11T05:40:46.438Z,5.21
2017-03-11T05:41:46.448Z,5.25
2017-03-11T05:42:46.467Z,5.27
2017-03-11T05:44:01.012Z,5.3
2017-03-11T05:44:46.122Z,5.28
2017-03-11T05:45:46.517Z,5.33
2017-03-11T05:46:46.542Z,5.35
2017-03-11T05:47:46.557Z,5.36
2017-03-11T05:48:46.579Z,5.42
2017-03-11T05:49:46.607Z,5.42
2017-03-11T05:50:46.613Z,5.42
2017-03-11T05:51:46.656Z,5.39
2017-03-11T05:52:46.666Z,5.43
2017-03-11T05:53:46.922Z,5.36
2017-03-11T05:54:46.684Z,5.4
2017-03-11T05:55:46.697Z,5.42
2017-03-11T05:56:46.712Z,5.4
2017-03-11T05:57:46.756Z,5.39
2017-03-11T05:58:46.751Z,5.39
2017-03-11T05:59:46.765Z,5.4
2017-03-11T06:00:46.798Z,5.4
2017-03-11T06:01:46.822Z,5.31
2017-03-11T06:02:46.820Z,5.38
2017-03-11T06:04:01.384Z,5.45
2017-03-11T06:04:46.856Z,5.45
2017-03-11T06:05:46.884Z,5.46
2017-03-11T06:06:46.904Z,5.45
2017-03-11T06:08:46.837Z,5.54
2017-03-11T06:09:46.941Z,5.56
2017-03-11T06:10:46.971Z,5.43
2017-03-11T06:11:46.976Z,5.45
2017-03-11T06:12:46.998Z,5.53
2017-03-11T06:13:47.013Z,5.53
2017-03-11T06:14:47.039Z,5.61
2017-03-11T06:16:01.192Z,5.72
2017-03-11T06:16:47.071Z,5.64
2017-03-11T06:17:47.109Z,5.72
2017-03-11T06:18:47.112Z,5.68
2017-03-11T06:19:47.127Z,5.68
2017-03-11T06:20:47.176Z,5.74
2017-03-11T06:21:47.181Z,5.64
2017-03-11T06:22:46.812Z,5.79
2017-03-11T06:23:47.217Z,5.65
2017-03-11T06:24:47.215Z,5.65
2017-03-11T06:25:47.264Z,5.64
2017-03-11T06:26:47.267Z,5.75
2017-03-11T06:27:47.284Z,5.82
2017-03-11T06:28:46.897Z,5.79
2017-03-11T06:29:47.293Z,5.71
2017-03-11T06:30:47.335Z,5.74
2017-03-11T06:32:01.865Z,5.79
2017-03-11T06:32:47.355Z,5.85
2017-03-11T06:33:47.402Z,5.89
2017-03-11T06:35:01.914Z,5.79
2017-03-11T06:35:47.412Z,5.72
2017-03-11T06:36:47.453Z,5.78
2017-03-11T06:37:47.438Z,5.74
2017-03-11T06:38:47.469Z,5.74
2017-03-11T06:39:47.486Z,5.72
2017-03-11T06:40:47.503Z,5.76
2017-03-11T06:41:47.539Z,5.64
2017-03-11T06:42:47.559Z,5.72
2017-03-11T06:43:47.546Z,5.72
2017-03-11T06:44:47.566Z,5.74
2017-03-11T06:45:47.583Z,5.75
2017-03-11T06:46:47.244Z,5.71
2017-03-11T06:48:02.147Z,5.63
2017-03-11T06:48:47.637Z,5.63
2017-03-11T06:49:47.652Z,5.68
2017-03-11T06:50:47.672Z,5.71
2017-03-11T06:51:47.700Z,5.78
2017-03-11T06:52:47.333Z,5.82
2017-03-11T06:53:47.732Z,5.82
2017-03-11T06:54:47.742Z,5.81
2017-03-11T06:55:47.773Z,5.9
2017-03-11T06:56:47.777Z,5.93
2017-03-11T06:57:47.798Z,6.06
2017-03-11T06:58:47.819Z,6.04
2017-03-11T06:59:47.833Z,6.06
2017-03-11T07:00:47.871Z,6.09
2017-03-11T07:01:47.867Z,5.97
2017-03-11T07:02:47.885Z,6.09
2017-03-11T07:04:02.437Z,6.09
2017-03-11T07:04:47.922Z,6.06
2017-03-11T07:05:47.941Z,6.09
2017-03-11T07:06:47.997Z,6.04
2017-03-11T07:07:47.993Z,5.96
2017-03-11T07:08:48.011Z,6.09
2017-03-11T07:09:48.011Z,6.18
2017-03-11T07:10:48.051Z,6.21
2017-03-11T07:11:48.051Z,6.22
2017-03-11T07:12:48.065Z,6.21
2017-03-11T07:13:48.090Z,6.22
2017-03-11T07:14:48.112Z,6.34
2017-03-11T07:15:48.133Z,6.3
2017-03-11T07:16:47.755Z,6.17
2017-03-11T07:19:02.706Z,6.28
2017-03-11T07:19:48.192Z,6.27
2017-03-11T07:20:48.210Z,6.15
2017-03-11T07:21:48.234Z,6.18
2017-03-11T07:23:02.776Z,6.3
2017-03-11T07:23:48.480Z,6.34
2017-03-11T07:25:02.811Z,6.43
2017-03-11T07:25:48.300Z,6.44
2017-03-11T07:26:48.320Z,6.62
2017-03-11T07:27:48.343Z,6.59
2017-03-11T07:28:48.378Z,6.71
2017-03-11T07:29:48.399Z,6.77
2017-03-11T07:30:48.398Z,6.97
2017-03-11T07:31:48.413Z,6.97
2017-03-11T07:32:48.434Z,6.94
2017-03-11T07:33:48.470Z,6.8
2017-03-11T07:35:03.003Z,6.76
2017-03-11T07:36:48.520Z,6.89
2017-03-11T07:37:48.545Z,6.97
2017-03-11T07:38:48.571Z,6.85
2017-03-11T07:39:48.571Z,6.89
2017-03-11T07:40:48.603Z,7.06
2017-03-11T07:41:48.597Z,7.25
2017-03-11T07:42:48.626Z,7.28
2017-03-11T07:43:48.642Z,7.42
2017-03-11T07:44:48.657Z,7.46
2017-03-11T07:45:48.670Z,7.67
2017-03-11T07:46:48.701Z,7.57
2017-03-11T07:47:48.718Z,7.6
2017-03-11T07:48:48.739Z,7.5
2017-03-11T07:49:48.755Z,7.49
2017-03-11T07:51:03.317Z,7.49
2017-03-11T07:51:48.793Z,7.5
2017-03-11T07:52:48.806Z,7.53
2017-03-11T07:53:48.842Z,7.67
2017-03-11T07:54:48.844Z,7.63
2017-03-11T07:55:48.866Z,7.64
2017-03-11T07:56:48.891Z,7.61
2017-03-11T07:57:48.905Z,7.64
2017-03-11T07:58:48.932Z,7.63
2017-03-11T07:59:48.941Z,7.83
2017-03-11T08:00:48.961Z,7.75
2017-03-11T08:02:03.518Z,7.74
2017-03-11T08:02:49.005Z,7.87
2017-03-11T08:03:49.020Z,8.07
2017-03-11T08:04:49.037Z,8.04
2017-03-11T08:05:49.058Z,7.95
2017-03-11T08:07:03.616Z,7.8
2017-03-11T08:07:49.121Z,7.79
2017-03-11T08:08:49.113Z,7.63
2017-03-11T08:09:49.140Z,7.8
2017-03-11T08:10:49.165Z,7.97
2017-03-11T08:11:49.175Z,8.1
2017-03-11T08:12:48.806Z,8.22
2017-03-11T08:14:49.268Z,8.16
2017-03-11T08:15:49.255Z,8.23
2017-03-11T08:16:49.272Z,8.41
2017-03-11T08:18:49.574Z,8.26
2017-03-11T08:19:49.333Z,8.3
2017-03-11T08:20:49.369Z,8.33
2017-03-11T08:21:49.376Z,8.33
2017-03-11T08:23:03.917Z,8.4
2017-03-11T08:23:49.423Z,8.38
2017-03-11T08:24:49.430Z,8.34
2017-03-11T08:25:49.450Z,8.44
2017-03-11T08:28:03.633Z,8.55
2017-03-11T08:28:49.518Z,8.43
2017-03-11T08:29:49.539Z,8.43
2017-03-11T08:30:49.563Z,8.41
2017-03-11T08:31:49.591Z,8.58
2017-03-11T08:33:49.610Z,8.22
2017-03-11T08:34:49.656Z,8.04
2017-03-11T08:35:49.672Z,8.07
2017-03-11T08:36:49.686Z,8.2
2017-03-11T08:37:49.713Z,8.43
2017-03-11T08:39:04.243Z,8.59
2017-03-11T08:39:49.749Z,8.76
2017-03-11T08:40:49.767Z,9.01
2017-03-11T08:42:03.933Z,9.31
2017-03-11T08:43:04.321Z,9.31
2017-03-11T08:43:49.814Z,9.39
2017-03-11T08:44:49.847Z,9.47
2017-03-11T08:45:49.482Z,9.46
2017-03-11T08:46:49.486Z,9.58
2017-03-11T08:48:49.933Z,9.46
2017-03-11T08:49:49.962Z,9.38
2017-03-11T08:50:49.963Z,9.24
2017-03-11T08:51:49.983Z,9.15
2017-03-11T08:54:04.554Z,9.08
2017-03-11T08:54:50.040Z,9.21
2017-03-11T08:55:50.067Z,9.17
2017-03-11T08:56:50.085Z,9.4
2017-03-11T08:57:50.110Z,9.5
2017-03-11T08:58:50.133Z,9.4
2017-03-11T09:01:04.691Z,9.84
2017-03-11T09:01:50.212Z,10.04
2017-03-11T09:02:50.226Z,10.27
2017-03-11T09:03:50.233Z,10.25
2017-03-11T09:04:50.254Z,10.18
2017-03-11T09:05:50.276Z,10.27
2017-03-11T09:06:50.316Z,10.34
2017-03-11T09:07:50.325Z,10.41
2017-03-11T09:08:50.333Z,10.23
2017-03-11T09:09:50.378Z,10.29
2017-03-11T09:10:50.375Z,10.45
2017-03-11T09:11:50.399Z,10.45
2017-03-11T09:12:50.429Z,10.66
2017-03-11T09:13:50.441Z,10.64
2017-03-11T09:15:04.989Z,10.52
2017-03-11T09:15:50.496Z,10.47
2017-03-11T09:16:50.505Z,10.51
2017-03-11T09:17:50.525Z,10.27
2017-03-11T09:18:50.548Z,10.23
2017-03-11T09:19:50.579Z,10.38
2017-03-11T09:20:50.592Z,10.47
2017-03-11T09:21:50.629Z,10.44
2017-03-11T09:22:50.633Z,10.17
2017-03-11T09:23:50.653Z,10.08
2017-03-11T09:24:50.683Z,10.04
2017-03-11T09:26:05.230Z,10.09
2017-03-11T09:26:50.719Z,9.94
2017-03-11T09:27:50.741Z,9.84
2017-03-11T09:28:50.775Z,9.54
2017-03-11T09:29:50.784Z,9.6
2017-03-11T09:30:50.816Z,9.47
2017-03-11T09:31:50.851Z,9.6
2017-03-11T09:32:50.847Z,9.56
2017-03-11T09:33:50.876Z,9.61
2017-03-11T09:36:50.929Z,9.87
2017-03-11T09:37:50.954Z,9.87
2017-03-11T09:38:50.990Z,9.75
2017-03-11T09:39:51.026Z,9.72
2017-03-11T09:40:51.022Z,9.74
2017-03-11T09:42:05.568Z,9.78
2017-03-11T09:42:51.059Z,9.91
2017-03-11T09:43:51.084Z,9.84
2017-03-11T09:44:51.114Z,9.86
2017-03-11T09:45:51.127Z,9.69
2017-03-11T09:46:51.143Z,9.79
2017-03-11T09:47:51.165Z,9.35
2017-03-11T09:48:51.194Z,9.47
2017-03-11T09:49:50.820Z,9.56
2017-03-11T09:50:50.840Z,9.47
2017-03-11T09:51:51.267Z,9.38
2017-03-11T09:52:51.270Z,9.46
2017-03-11T09:53:51.292Z,9.46
2017-03-11T09:54:51.313Z,9.6
2017-03-11T09:55:51.344Z,9.76
2017-03-11T09:56:51.360Z,9.78
2017-03-11T09:58:05.903Z,9.84
2017-03-11T09:59:05.929Z,9.97
2017-03-11T09:59:51.419Z,10.02
2017-03-11T10:01:05.987Z,10.15
2017-03-11T10:01:51.461Z,10.27
2017-03-11T10:03:06.010Z,10.17
2017-03-11T10:03:51.510Z,10.27
2017-03-11T10:04:51.523Z,10.38
2017-03-11T10:05:51.544Z,10.59
2017-03-11T10:06:51.581Z,10.67
2017-03-11T10:07:51.216Z,10.88
2017-03-11T10:09:51.651Z,11.06
2017-03-11T10:10:51.289Z,10.96
2017-03-11T10:11:51.672Z,10.74
2017-03-11T10:13:06.229Z,10.33
2017-03-11T10:14:06.243Z,10.52
2017-03-11T10:14:51.768Z,10.44
2017-03-11T10:16:06.320Z,10.4
2017-03-11T10:16:51.778Z,10.48
2017-03-11T10:18:06.328Z,10.36
2017-03-11T10:19:06.350Z,10.15
2017-03-11T10:19:51.855Z,10.27
2017-03-11T10:20:51.863Z,10.34
2017-03-11T10:21:51.885Z,10.38
2017-03-11T10:22:51.906Z,10.26
2017-03-11T10:23:51.929Z,10.14
2017-03-11T10:24:51.951Z,10.23
2017-03-11T10:25:51.973Z,10.29
2017-03-11T10:26:52.003Z,10.27
2017-03-11T10:27:52.084Z,10.51
2017-03-11T10:29:06.567Z,10.74
2017-03-11T10:29:51.694Z,10.91
2017-03-11T10:30:52.098Z,10.89
2017-03-11T10:31:52.114Z,10.81
2017-03-11T10:32:52.124Z,10.73
2017-03-11T10:34:52.168Z,10.05
2017-03-11T10:35:52.198Z,10.18
2017-03-11T10:36:52.209Z,10.07
2017-03-11T10:38:52.269Z,10.17
2017-03-11T10:39:52.274Z,10.32
2017-03-11T10:40:51.921Z,10.44
2017-03-11T10:41:52.319Z,10.48
2017-03-11T10:42:51.963Z,10.53
2017-03-11T10:43:52.399Z,10.78
2017-03-11T10:44:52.385Z,10.92
2017-03-11T10:45:52.422Z,10.76
2017-03-11T10:46:52.448Z,10.68
2017-03-11T10:47:52.074Z,10.76
2017-03-11T10:49:07.014Z,10.86
2017-03-11T10:49:52.497Z,10.99
2017-03-11T10:50:52.150Z,10.91
2017-03-11T10:51:52.535Z,10.78
2017-03-11T10:53:52.580Z,10.67
2017-03-11T10:54:52.606Z,10.71
2017-03-11T10:55:52.625Z,10.29
2017-03-11T10:56:52.261Z,10.25
2017-03-11T10:57:52.666Z,10.51
2017-03-11T10:59:07.223Z,10.51
2017-03-11T10:59:52.716Z,10.55
2017-03-11T11:01:07.262Z,10.3
2017-03-11T11:01:52.755Z,10.42
2017-03-11T11:02:52.782Z,10.53
2017-03-11T11:03:52.795Z,10.86
2017-03-11T11:05:07.348Z,11.07
2017-03-11T11:05:52.851Z,11.14
2017-03-11T11:06:52.863Z,11.39
2017-03-11T11:07:52.884Z,11.69
2017-03-11T11:09:52.929Z,11.7
2017-03-11T11:10:52.953Z,11.79
2017-03-11T11:11:52.973Z,11.79
2017-03-11T11:12:53.005Z,11.55
2017-03-11T11:14:07.553Z,11.15
2017-03-11T11:14:53.051Z,11.04
2017-03-11T11:15:53.079Z,10.97
2017-03-11T11:17:07.613Z,10.88
2017-03-11T11:17:53.105Z,10.64
2017-03-11T11:18:53.126Z,10.47
2017-03-11T11:19:52.765Z,10.26
2017-03-11T11:20:53.194Z,10.36
2017-03-11T11:21:52.825Z,10.17
2017-03-11T11:22:53.217Z,9.97
2017-03-11T11:23:53.238Z,10.23
2017-03-11T11:24:53.262Z,10.26
2017-03-11T11:25:53.280Z,10.23
2017-03-11T11:28:53.369Z,10.63
2017-03-11T11:29:53.422Z,10.7
2017-03-11T11:30:53.410Z,10.94
2017-03-11T11:31:53.413Z,11.04
2017-03-11T11:33:07.963Z,11
2017-03-11T11:33:53.456Z,11.03
2017-03-11T11:34:53.497Z,11.11
2017-03-11T11:35:53.503Z,11.27
2017-03-11T11:37:08.052Z,11.44
2017-03-11T11:37:53.552Z,11.58
2017-03-11T11:39:08.094Z,11.67
2017-03-11T11:40:53.611Z,11.47
2017-03-11T11:41:53.257Z,11.39
2017-03-11T11:42:53.655Z,11.24
2017-03-11T11:43:53.687Z,10.99
2017-03-11T11:44:53.701Z,11.03
2017-03-11T11:45:53.736Z,10.82
2017-03-11T11:46:53.746Z,10.52
2017-03-11T11:47:53.404Z,10.71
2017-03-11T11:49:08.316Z,10.68
2017-03-11T11:49:53.432Z,10.56
2017-03-11T11:51:08.011Z,10.84
2017-03-11T11:51:53.465Z,10.96
2017-03-11T11:52:53.934Z,10.97
2017-03-11T11:54:08.041Z,11.03
2017-03-11T11:54:53.935Z,11.02
2017-03-11T11:55:53.557Z,10.74
2017-03-11T11:57:54.018Z,10.94
2017-03-11T11:58:54.003Z,10.94
2017-03-11T11:59:54.028Z,10.74
2017-03-11T12:00:53.667Z,10.74
2017-03-11T12:01:54.071Z,10.63
2017-03-11T12:02:53.713Z,10.76
2017-03-11T12:04:08.645Z,10.89
2017-03-11T12:04:54.143Z,11
2017-03-11T12:05:54.162Z,10.96
2017-03-11T12:06:53.802Z,11.09
2017-03-11T12:07:54.215Z,10.97
2017-03-11T12:08:54.229Z,10.97
2017-03-11T12:09:54.248Z,10.86
2017-03-11T12:11:54.302Z,10.94
2017-03-11T12:12:54.351Z,10.86
2017-03-11T12:13:54.336Z,10.86
2017-03-11T12:14:54.000Z,10.88
2017-03-11T12:15:54.388Z,10.86
2017-03-11T12:16:54.402Z,10.89
2017-03-11T12:18:08.959Z,11.07
2017-03-11T12:18:54.458Z,10.89
2017-03-11T12:19:54.470Z,10.82
2017-03-11T12:20:54.502Z,10.91
2017-03-11T12:22:09.041Z,10.89
2017-03-11T12:22:54.533Z,10.96
2017-03-11T12:23:54.553Z,10.71
2017-03-11T12:24:54.602Z,10.68
2017-03-11T12:25:54.598Z,10.86
2017-03-11T12:26:54.620Z,10.92
2017-03-11T12:27:54.660Z,10.94
2017-03-11T12:28:54.290Z,10.96
2017-03-11T12:29:54.299Z,10.94
2017-03-11T12:31:09.245Z,10.91
2017-03-11T12:31:54.728Z,11
2017-03-11T12:32:54.757Z,11.03
2017-03-11T12:33:54.782Z,11.04
2017-03-11T12:34:54.795Z,10.53
2017-03-11T12:36:09.354Z,10.45
2017-03-11T12:36:54.869Z,10.44
2017-03-11T12:37:54.859Z,10.15
2017-03-11T12:38:54.894Z,10.17
2017-03-11T12:39:54.903Z,10.18
2017-03-11T12:40:54.959Z,10.09
2017-03-11T12:41:54.949Z,9.99
2017-03-11T12:42:54.998Z,9.81
2017-03-11T12:43:55.000Z,9.61
2017-03-11T12:44:55.041Z,9.51
2017-03-11T12:45:55.054Z,9.33
2017-03-11T12:46:55.056Z,9.35
2017-03-11T12:47:55.095Z,9.46
2017-03-11T12:48:55.114Z,9.66
2017-03-11T12:49:54.734Z,9.78
2017-03-11T12:50:55.181Z,9.81
2017-03-11T12:52:09.694Z,9.78
2017-03-11T12:52:55.187Z,9.79
2017-03-11T12:54:09.738Z,9.87
2017-03-11T12:54:55.235Z,9.79
2017-03-11T12:55:55.248Z,9.76
2017-03-11T12:57:09.800Z,10.2
2017-03-11T12:57:55.301Z,10.25
2017-03-11T12:58:55.317Z,10.51
2017-03-11T13:00:55.363Z,10.96
2017-03-11T13:02:09.535Z,11.03
2017-03-11T13:02:55.400Z,11.1
2017-03-11T13:03:55.425Z,11.27
2017-03-11T13:05:55.473Z,11.54
2017-03-11T13:06:55.500Z,11.52
2017-03-11T13:08:10.043Z,11.72
2017-03-11T13:08:55.530Z,11.69
2017-03-11T13:10:10.085Z,11.64
2017-03-11T13:11:10.106Z,11.69
2017-03-11T13:12:10.127Z,11.73
2017-03-11T13:12:55.634Z,11.75
2017-03-11T13:13:55.643Z,11.58
2017-03-11T13:14:55.667Z,11.69
2017-03-11T13:15:55.684Z,11.6
2017-03-11T13:17:55.730Z,11.28
2017-03-11T13:18:55.762Z,11.4
2017-03-11T13:19:56.099Z,11.22
2017-03-11T13:20:55.802Z,11.21
2017-03-11T13:21:55.822Z,11.24
2017-03-11T13:22:55.838Z,11.25
2017-03-11T13:24:10.392Z,11.27
2017-03-11T13:24:56.035Z,11.32
2017-03-11T13:25:55.926Z,11.36
2017-03-11T13:27:10.458Z,11.24
2017-03-11T13:27:55.565Z,11.24
2017-03-11T13:29:10.501Z,10.85
2017-03-11T13:30:10.522Z,10.64
2017-03-11T13:30:56.016Z,10.67
2017-03-11T13:31:56.048Z,10.71
2017-03-11T13:32:56.061Z,10.79
2017-03-11T13:34:10.621Z,10.91
2017-03-11T13:34:56.105Z,10.91
2017-03-11T13:35:55.741Z,10.94
2017-03-11T13:36:56.145Z,10.92
2017-03-11T13:37:56.183Z,10.91
2017-03-11T13:39:10.722Z,10.94
2017-03-11T13:40:56.263Z,10.74
2017-03-11T13:41:56.256Z,10.7
2017-03-11T13:43:10.811Z,10.63
2017-03-11T13:43:56.300Z,10.6
2017-03-11T13:44:56.319Z,10.51
2017-03-11T13:45:55.973Z,10.51
2017-03-11T13:46:55.985Z,10.32
2017-03-11T13:48:56.409Z,10.26
2017-03-11T13:49:56.433Z,10.36
2017-03-11T13:50:56.458Z,10.41
2017-03-11T13:51:56.476Z,10.44
2017-03-11T13:52:56.498Z,10.74
2017-03-11T13:53:56.521Z,10.92
2017-03-11T13:54:56.549Z,10.96
2017-03-11T13:56:56.996Z,11.07
2017-03-11T13:58:11.152Z,11.09
2017-03-11T13:58:56.254Z,11.11
2017-03-11T14:00:10.793Z,11
2017-03-11T14:00:56.687Z,10.97
2017-03-11T14:01:56.705Z,11.02
2017-03-11T14:03:10.854Z,11.14
2017-03-11T14:03:56.734Z,11.28
2017-03-11T14:04:56.377Z,11.25